Time;durP1;ratioP1;P1;durP2;ratioP2;P2;SDS_P1;SDS_P2;PMS_P1;PMS_P2;Temp;Humidity;BMP_temperature;BMP_pressure;BME280_temperature;BME280_humidity;BME280_pressure;Samples;Min_cycle;Max_cycle;Signal;HPM_P1;HPM_P2
2022/08/29 00:01:07;;;;;;;;;;;23.40;51.50;;;;;;5077541;28;19924;-61
2022/08/29 00:03:34;;;;;;;;;;;23.40;51.50;;;;;;5089379;28;19924;-61
2022/08/29 00:06:01;;;;;;;;;;;23.40;51.50;;;;;;5083652;28;20327;-61
2022/08/29 00:08:29;;;;;;;;;;;23.50;51.70;;;;;;5071328;28;19925;-61
2022/08/29 00:10:56;;;;;;;;;;;23.40;51.60;;;;;;5090265;28;20023;-61
2022/08/29 00:13:23;;;;;;;;;;;23.40;51.60;;;;;;5079787;28;19955;-61
2022/08/29 00:15:49;;;;;;;;;;;23.40;51.70;;;;;;5072360;28;20366;-61
2022/08/29 00:18:17;;;;;;;;;;;23.40;51.70;;;;;;5086138;28;19920;-61
2022/08/29 00:20:43;;;;;;;;;;;23.50;51.90;;;;;;5092577;28;19924;-61
2022/08/29 00:23:10;;;;;;;;;;;23.40;51.80;;;;;;5090218;28;20499;-61
2022/08/29 00:25:38;;;;;;;;;;;23.40;51.80;;;;;;5087157;28;20324;-61
2022/08/29 00:28:05;;;;;;;;;;;23.40;51.80;;;;;;5070443;28;19974;-61
2022/08/29 00:30:32;;;;;;;;;;;23.40;51.90;;;;;;5081332;28;19998;-61
2022/08/29 00:32:59;;;;;;;;;;;23.40;51.90;;;;;;5068679;28;20353;-61
2022/08/29 00:35:26;;;;;;;;;;;23.40;51.90;;;;;;5081175;28;19931;-61
2022/08/29 00:37:53;;;;;;;;;;;23.40;52.00;;;;;;5095838;28;19924;-61
2022/08/29 00:40:21;;;;;;;;;;;23.40;52.00;;;;;;5102958;28;19943;-61
2022/08/29 00:42:49;;;;;;;;;;;23.40;52.10;;;;;;5105513;28;19927;-61
2022/08/29 00:45:17;;;;;;;;;;;23.40;52.00;;;;;;5093622;28;19920;-61
2022/08/29 00:47:44;;;;;;;;;;;23.40;52.00;;;;;;5088693;28;20010;-61
2022/08/29 00:50:13;;;;;;;;;;;23.40;52.10;;;;;;5098353;28;19927;-61
2022/08/29 00:52:40;;;;;;;;;;;23.40;52.10;;;;;;5084714;28;19952;-61
2022/08/29 00:55:10;;;;;;;;;;;23.40;52.20;;;;;;5073843;28;19943;-61
2022/08/29 00:57:36;;;;;;;;;;;23.50;52.30;;;;;;5105228;28;19935;-61
2022/08/29 01:00:05;;;;;;;;;;;23.40;52.30;;;;;;5103143;28;19943;-61
2022/08/29 01:02:32;;;;;;;;;;;23.40;52.30;;;;;;5105783;28;19920;-61
2022/08/29 01:04:59;;;;;;;;;;;23.40;52.30;;;;;;5097077;28;19967;-62
2022/08/29 01:07:26;;;;;;;;;;;23.40;52.30;;;;;;5106682;28;19974;-61
2022/08/29 01:09:53;;;;;;;;;;;23.40;52.40;;;;;;5108168;28;19931;-61
2022/08/29 01:12:19;;;;;;;;;;;23.40;52.40;;;;;;5112802;28;19920;-61
2022/08/29 01:14:47;;;;;;;;;;;23.40;52.40;;;;;;5111630;28;19961;-61
2022/08/29 01:17:17;;;;;;;;;;;23.40;52.50;;;;;;5099309;28;20007;-61
2022/08/29 01:19:45;;;;;;;;;;;23.40;52.50;;;;;;5071894;28;19920;-61
2022/08/29 01:22:33;;;;;;;;;;;23.40;52.50;;;;;;5091580;28;19969;-61
2022/08/29 01:25:01;;;;;;;;;;;23.40;52.60;;;;;;5090316;28;19974;-61
2022/08/29 01:27:29;;;;;;;;;;;23.40;52.60;;;;;;5105808;28;19920;-61
2022/08/29 01:29:56;;;;;;;;;;;23.40;52.70;;;;;;5107610;28;19970;-61
2022/08/29 01:32:23;;;;;;;;;;;23.40;52.70;;;;;;5107228;28;19920;-61
2022/08/29 01:34:50;;;;;;;;;;;23.40;52.70;;;;;;5106759;28;20400;-61
2022/08/29 01:37:17;;;;;;;;;;;23.40;52.70;;;;;;5072502;28;20273;-61
2022/08/29 01:39:44;;;;;;;;;;;23.40;52.80;;;;;;5070751;28;19920;-61
2022/08/29 01:42:12;;;;;;;;;;;23.40;52.80;;;;;;5091264;28;20006;-61
2022/08/29 01:44:39;;;;;;;;;;;23.40;52.80;;;;;;5111576;28;19919;-61
2022/08/29 01:47:06;;;;;;;;;;;23.40;52.80;;;;;;5110235;28;20023;-61
2022/08/29 01:49:33;;;;;;;;;;;23.50;52.90;;;;;;5109545;28;19924;-61
2022/08/29 01:52:00;;;;;;;;;;;23.40;52.90;;;;;;5095540;28;20349;-61
2022/08/29 01:54:27;;;;;;;;;;;23.40;52.90;;;;;;5073801;28;19930;-61
2022/08/29 01:56:54;;;;;;;;;;;23.40;53.00;;;;;;5091134;28;19946;-61
2022/08/29 01:59:22;;;;;;;;;;;23.40;52.90;;;;;;5095072;28;19973;-61
2022/08/29 02:01:50;;;;;;;;;;;23.40;53.00;;;;;;5097231;28;19973;-61
2022/08/29 02:04:16;;;;;;;;;;;23.40;53.00;;;;;;5096438;28;19926;-61
2022/08/29 02:06:44;;;;;;;;;;;23.40;53.00;;;;;;5106124;28;19955;-61
2022/08/29 02:09:11;;;;;;;;;;;23.40;53.00;;;;;;5093851;28;19926;-61
2022/08/29 02:11:38;;;;;;;;;;;23.40;53.00;;;;;;5111427;28;19927;-61
2022/08/29 02:14:05;;;;;;;;;;;23.40;53.10;;;;;;5109862;28;19920;-61
2022/08/29 02:16:33;;;;;;;;;;;23.40;53.10;;;;;;5103393;28;19924;-61
2022/08/29 02:19:00;;;;;;;;;;;23.40;53.10;;;;;;5073125;28;19925;-61
2022/08/29 02:21:27;;;;;;;;;;;23.40;53.20;;;;;;5100128;28;19920;-61
2022/08/29 02:23:53;;;;;;;;;;;23.40;53.20;;;;;;5094922;28;19924;-61
2022/08/29 02:26:20;;;;;;;;;;;23.40;53.20;;;;;;5095732;28;19924;-61
2022/08/29 02:28:49;;;;;;;;;;;23.40;53.20;;;;;;5076126;28;19927;-61
2022/08/29 02:31:15;;;;;;;;;;;23.40;53.20;;;;;;5092125;28;19935;-61
2022/08/29 02:33:44;;;;;;;;;;;23.40;53.20;;;;;;5108664;28;19920;-61
2022/08/29 02:36:11;;;;;;;;;;;23.40;53.30;;;;;;5081371;28;19942;-61
2022/08/29 02:38:38;;;;;;;;;;;23.40;53.30;;;;;;5090979;28;19920;-61
2022/08/29 02:41:05;;;;;;;;;;;23.40;53.30;;;;;;5101692;28;19924;-61
2022/08/29 02:43:31;;;;;;;;;;;23.40;53.30;;;;;;5093123;28;19943;-61
2022/08/29 02:45:58;;;;;;;;;;;23.40;53.40;;;;;;5085626;28;19943;-61
2022/08/29 02:48:25;;;;;;;;;;;23.40;53.40;;;;;;5103609;28;20019;-61
2022/08/29 02:50:53;;;;;;;;;;;23.40;54.00;;;;;;5130621;27;19973;-61
2022/08/29 02:53:21;;;;;;;;;;;23.40;53.50;;;;;;5113403;27;19927;-61
2022/08/29 02:55:50;;;;;;;;;;;23.40;54.00;;;;;;5093089;28;19920;-61
2022/08/29 02:58:16;;;;;;;;;;;23.40;53.50;;;;;;5094220;28;19969;-61
2022/08/29 03:00:43;;;;;;;;;;;23.40;53.50;;;;;;5110611;28;19924;-61
2022/08/29 03:03:10;;;;;;;;;;;23.40;53.60;;;;;;5103244;28;19920;-61
2022/08/29 03:05:37;;;;;;;;;;;23.40;53.60;;;;;;5073449;28;20051;-61
2022/08/29 03:08:06;;;;;;;;;;;23.40;53.60;;;;;;5074849;28;19920;-61
2022/08/29 03:10:33;;;;;;;;;;;23.40;53.60;;;;;;5094796;28;19920;-61
2022/08/29 03:12:59;;;;;;;;;;;23.40;53.60;;;;;;5110432;28;20010;-61
2022/08/29 03:15:26;;;;;;;;;;;23.40;53.70;;;;;;5092937;28;20376;-61
2022/08/29 03:17:53;;;;;;;;;;;23.40;53.70;;;;;;5110092;28;19947;-61
2022/08/29 03:20:20;;;;;;;;;;;23.40;53.70;;;;;;5093803;28;19920;-61
2022/08/29 03:22:47;;;;;;;;;;;23.40;53.70;;;;;;5096529;28;20259;-61
2022/08/29 03:25:15;;;;;;;;;;;23.40;53.70;;;;;;5093186;28;19994;-61
2022/08/29 03:27:42;;;;;;;;;;;23.40;53.80;;;;;;5089417;28;19974;-62
2022/08/29 03:30:09;;;;;;;;;;;23.40;53.80;;;;;;5075421;28;19979;-61
2022/08/29 03:32:36;;;;;;;;;;;23.40;53.80;;;;;;5078157;28;19927;-61
2022/08/29 03:35:03;;;;;;;;;;;23.40;53.80;;;;;;5073726;28;19985;-61
2022/08/29 03:37:30;;;;;;;;;;;23.40;53.90;;;;;;5114387;27;19948;-61
2022/08/29 03:39:56;;;;;;;;;;;23.50;54.00;;;;;;5091640;28;20024;-61
2022/08/29 03:42:24;;;;;;;;;;;23.40;53.90;;;;;;5105286;28;19920;-61
2022/08/29 03:44:51;;;;;;;;;;;23.40;54.00;;;;;;5109151;28;19993;-61
2022/08/29 03:47:18;;;;;;;;;;;23.40;54.00;;;;;;5093184;28;19927;-61
2022/08/29 03:49:45;;;;;;;;;;;23.40;54.00;;;;;;5108408;28;19920;-61
2022/08/29 03:52:11;;;;;;;;;;;23.40;54.00;;;;;;5092984;28;20576;-61
2022/08/29 03:54:38;;;;;;;;;;;23.40;54.00;;;;;;5094217;28;19927;-60
2022/08/29 03:57:05;;;;;;;;;;;23.40;54.10;;;;;;5093383;28;19928;-61
2022/08/29 03:59:33;;;;;;;;;;;23.40;54.10;;;;;;5108065;28;19935;-61
2022/08/29 04:02:00;;;;;;;;;;;23.40;54.10;;;;;;5110833;28;19920;-61
2022/08/29 04:07:12;;;;;;;;;;;23.40;54.10;;;;;;5107629;28;20377;-61
2022/08/29 04:09:39;;;;;;;;;;;23.40;54.10;;;;;;5110489;28;19933;-61
2022/08/29 04:12:06;;;;;;;;;;;23.40;54.20;;;;;;5091261;28;19927;-61
2022/08/29 04:14:35;;;;;;;;;;;23.40;54.20;;;;;;5110559;28;20350;-61
2022/08/29 04:17:03;;;;;;;;;;;23.40;54.20;;;;;;5090055;28;19927;-61
2022/08/29 04:19:29;;;;;;;;;;;23.40;54.30;;;;;;5090960;28;19963;-62
2022/08/29 04:21:56;;;;;;;;;;;23.40;54.30;;;;;;5088162;28;20388;-61
2022/08/29 04:24:23;;;;;;;;;;;23.40;54.30;;;;;;5088313;28;20360;-61
2022/08/29 04:26:50;;;;;;;;;;;23.40;54.30;;;;;;5072395;28;19920;-61
2022/08/29 04:29:16;;;;;;;;;;;23.40;54.30;;;;;;5100981;28;19970;-61
2022/08/29 04:31:45;;;;;;;;;;;23.40;54.40;;;;;;5092756;28;19973;-61
2022/08/29 04:34:12;;;;;;;;;;;23.40;54.40;;;;;;5075054;28;19951;-61
2022/08/29 04:36:40;;;;;;;;;;;23.40;54.40;;;;;;5090672;28;19921;-61
2022/08/29 04:39:06;;;;;;;;;;;23.40;54.50;;;;;;5072778;28;19928;-61
2022/08/29 04:41:33;;;;;;;;;;;23.40;54.40;;;;;;5088866;28;19974;-61
2022/08/29 04:44:00;;;;;;;;;;;23.40;54.50;;;;;;5089660;28;20016;-61
2022/08/29 04:46:27;;;;;;;;;;;23.40;54.50;;;;;;5082534;28;19927;-61
2022/08/29 04:48:56;;;;;;;;;;;23.40;54.50;;;;;;5107456;28;19928;-61
2022/08/29 04:51:22;;;;;;;;;;;23.40;54.50;;;;;;5091217;28;19920;-61
2022/08/29 04:53:49;;;;;;;;;;;23.40;54.50;;;;;;5092792;28;20346;-61
2022/08/29 04:56:17;;;;;;;;;;;23.40;54.50;;;;;;5108055;28;20365;-61
2022/08/29 04:58:44;;;;;;;;;;;23.40;54.50;;;;;;5093176;28;20360;-60
2022/08/29 05:01:11;;;;;;;;;;;23.40;54.60;;;;;;5081273;28;20023;-61
2022/08/29 05:03:38;;;;;;;;;;;23.40;54.60;;;;;;5110095;28;19924;-61
2022/08/29 05:06:08;;;;;;;;;;;23.40;54.60;;;;;;5090798;28;20019;-61
2022/08/29 05:08:35;;;;;;;;;;;23.40;54.70;;;;;;5119576;28;19927;-61
2022/08/29 05:11:02;;;;;;;;;;;23.40;54.70;;;;;;5108313;28;19927;-61
2022/08/29 05:13:29;;;;;;;;;;;23.40;54.70;;;;;;5079530;28;20108;-61
2022/08/29 05:15:56;;;;;;;;;;;23.40;54.80;;;;;;5105777;28;19923;-60
2022/08/29 05:18:23;;;;;;;;;;;23.40;54.90;;;;;;5073476;28;19974;-61
2022/08/29 05:20:50;;;;;;;;;;;23.40;55.00;;;;;;5093727;28;20427;-60
2022/08/29 05:23:18;;;;;;;;;;;23.40;55.00;;;;;;5089231;28;19920;-61
2022/08/29 05:25:45;;;;;;;;;;;23.40;55.10;;;;;;5093450;28;19928;-61
2022/08/29 05:28:12;;;;;;;;;;;23.30;55.10;;;;;;5084382;28;20011;-61
2022/08/29 05:30:39;;;;;;;;;;;23.30;55.10;;;;;;5095369;28;19920;-61
2022/08/29 05:33:06;;;;;;;;;;;23.30;55.20;;;;;;5095475;28;19981;-62
2022/08/29 05:35:33;;;;;;;;;;;23.30;55.20;;;;;;5094316;28;19959;-61
2022/08/29 05:37:59;;;;;;;;;;;23.30;55.20;;;;;;5090716;28;19920;-61
2022/08/29 05:40:27;;;;;;;;;;;23.30;55.10;;;;;;5112516;28;19950;-61
2022/08/29 05:42:54;;;;;;;;;;;23.30;55.20;;;;;;5111812;28;19946;-62
2022/08/29 05:45:21;;;;;;;;;;;23.30;55.10;;;;;;5097666;28;19966;-61
2022/08/29 05:48:00;;;;;;;;;;;23.30;55.20;;;;;;5095531;28;19965;-62
2022/08/29 05:50:27;;;;;;;;;;;23.30;55.10;;;;;;5093614;28;19981;-61
2022/08/29 05:52:54;;;;;;;;;;;23.20;55.60;;;;;;5096565;28;19924;-62
2022/08/29 05:55:20;;;;;;;;;;;23.20;54.90;;;;;;5111829;28;19920;-61
2022/08/29 05:57:52;;;;;;;;;;;23.20;54.80;;;;;;5100761;28;19959;-61
2022/08/29 06:00:19;;;;;;;;;;;23.20;54.80;;;;;;5110125;28;20027;-61
2022/08/29 06:02:45;;;;;;;;;;;23.20;54.80;;;;;;5095779;28;19920;-61
2022/08/29 06:05:12;;;;;;;;;;;23.20;54.80;;;;;;5092768;28;20357;-61
2022/08/29 06:07:39;;;;;;;;;;;23.20;54.70;;;;;;5095457;28;19974;-61
2022/08/29 06:10:07;;;;;;;;;;;23.20;55.30;;;;;;5092031;28;19920;-61
2022/08/29 06:12:34;;;;;;;;;;;23.20;54.70;;;;;;5095759;28;19920;-61
2022/08/29 06:15:02;;;;;;;;;;;23.20;54.60;;;;;;5108974;28;19986;-61
2022/08/29 06:17:29;;;;;;;;;;;23.20;54.60;;;;;;5106995;28;19925;-61
2022/08/29 06:19:56;;;;;;;;;;;23.20;54.60;;;;;;5075933;28;19920;-61
2022/08/29 06:22:22;;;;;;;;;;;23.20;54.50;;;;;;5107053;28;19989;-61
2022/08/29 06:24:51;;;;;;;;;;;23.20;54.60;;;;;;5110241;28;19924;-61
2022/08/29 06:27:18;;;;;;;;;;;23.20;54.50;;;;;;5109771;28;19982;-61
2022/08/29 06:29:45;;;;;;;;;;;23.20;54.50;;;;;;5113520;28;19927;-61
2022/08/29 06:32:13;;;;;;;;;;;23.20;54.50;;;;;;5109664;28;19946;-61
2022/08/29 06:34:40;;;;;;;;;;;23.20;54.50;;;;;;5112351;28;19927;-61
2022/08/29 06:37:06;;;;;;;;;;;23.20;54.50;;;;;;5092432;28;19927;-61
2022/08/29 06:39:33;;;;;;;;;;;23.20;54.40;;;;;;5092087;28;19927;-60
2022/08/29 06:42:00;;;;;;;;;;;23.20;54.50;;;;;;5094315;28;19981;-61
2022/08/29 06:44:29;;;;;;;;;;;23.20;54.50;;;;;;5093308;28;19927;-61
2022/08/29 06:46:56;;;;;;;;;;;23.20;54.40;;;;;;5108728;28;19920;-61
2022/08/29 06:49:24;;;;;;;;;;;23.20;54.40;;;;;;5092081;28;19920;-61
2022/08/29 06:51:52;;;;;;;;;;;23.20;54.40;;;;;;5108885;28;20361;-63
2022/08/29 06:54:19;;;;;;;;;;;23.20;54.40;;;;;;5099864;28;19920;-61
2022/08/29 06:56:46;;;;;;;;;;;23.20;54.40;;;;;;5095981;28;19920;-61
2022/08/29 06:59:13;;;;;;;;;;;23.20;54.40;;;;;;5091900;28;20325;-61
2022/08/29 07:01:39;;;;;;;;;;;23.20;54.40;;;;;;5103513;28;19962;-61
2022/08/29 07:04:06;;;;;;;;;;;23.20;54.40;;;;;;5096604;28;19931;-62
2022/08/29 07:06:35;;;;;;;;;;;23.20;54.40;;;;;;5102210;28;20353;-62
2022/08/29 07:09:02;;;;;;;;;;;23.20;54.40;;;;;;5085295;28;19920;-62
2022/08/29 07:11:29;;;;;;;;;;;23.20;54.40;;;;;;5095496;28;19925;-61
2022/08/29 07:13:56;;;;;;;;;;;23.20;54.30;;;;;;5104643;28;19920;-61
2022/08/29 07:16:23;;;;;;;;;;;23.20;54.30;;;;;;5095460;28;19966;-60
2022/08/29 07:18:49;;;;;;;;;;;23.20;54.30;;;;;;5107578;28;19920;-61
2022/08/29 07:21:17;;;;;;;;;;;23.20;54.20;;;;;;5099155;27;19921;-61
2022/08/29 07:23:45;;;;;;;;;;;23.20;54.20;;;;;;5098939;28;19969;-60
2022/08/29 07:26:12;;;;;;;;;;;23.20;54.20;;;;;;5098383;27;19961;-60
2022/08/29 07:28:39;;;;;;;;;;;23.20;54.10;;;;;;5115030;28;19923;-60
2022/08/29 07:31:06;;;;;;;;;;;23.20;54.10;;;;;;5111480;28;19927;-60
2022/08/29 07:33:33;;;;;;;;;;;23.10;54.10;;;;;;5093729;28;19924;-61
2022/08/29 07:35:59;;;;;;;;;;;23.10;54.10;;;;;;5097936;28;19998;-60
2022/08/29 07:38:27;;;;;;;;;;;23.20;54.20;;;;;;5107109;27;19971;-60
2022/08/29 07:40:58;;;;;;;;;;;23.20;54.20;;;;;;5095632;28;19920;-59
2022/08/29 07:43:25;;;;;;;;;;;23.20;54.20;;;;;;5090454;28;19978;-60
2022/08/29 07:45:52;;;;;;;;;;;23.10;54.10;;;;;;5096708;28;19920;-61
2022/08/29 07:48:18;;;;;;;;;;;23.20;54.10;;;;;;5101237;28;19924;-60
2022/08/29 07:50:45;;;;;;;;;;;23.20;54.10;;;;;;5090439;28;19927;-60
2022/08/29 07:53:12;;;;;;;;;;;23.20;54.60;;;;;;5074868;28;19956;-60
2022/08/29 07:55:38;;;;;;;;;;;23.20;54.00;;;;;;5092287;28;20274;-60
2022/08/29 07:58:06;;;;;;;;;;;23.20;54.00;;;;;;5107486;28;19985;-61
2022/08/29 08:00:33;;;;;;;;;;;23.20;54.00;;;;;;5095519;28;19924;-60
2022/08/29 08:03:00;;;;;;;;;;;23.20;54.00;;;;;;5092499;28;19920;-60
2022/08/29 08:05:26;;;;;;;;;;;23.20;54.00;;;;;;5108479;27;19920;-61
2022/08/29 08:07:53;;;;;;;;;;;23.20;53.90;;;;;;5112806;28;19920;-60
2022/08/29 08:10:20;;;;;;;;;;;23.20;53.90;;;;;;5087998;28;19920;-60
2022/08/29 08:12:47;;;;;;;;;;;23.20;54.00;;;;;;5088689;28;20009;-60
2022/08/29 08:15:15;;;;;;;;;;;23.20;54.00;;;;;;5106901;28;19920;-61
2022/08/29 08:17:42;;;;;;;;;;;23.20;54.00;;;;;;5076032;28;19966;-61
2022/08/29 08:20:09;;;;;;;;;;;23.30;54.10;;;;;;5088800;28;19970;-61
2022/08/29 08:22:36;;;;;;;;;;;23.20;53.90;;;;;;5105368;28;19920;-61
2022/08/29 08:25:02;;;;;;;;;;;23.20;53.90;;;;;;5105241;28;19920;-60
2022/08/29 08:27:29;;;;;;;;;;;23.20;53.90;;;;;;5092099;28;19924;-60
2022/08/29 08:29:56;;;;;;;;;;;23.20;53.90;;;;;;5117917;27;20021;-60
2022/08/29 08:32:24;;;;;;;;;;;23.30;53.90;;;;;;5103522;27;19920;-61
2022/08/29 08:34:51;;;;;;;;;;;23.30;53.90;;;;;;5107367;28;20019;-61
2022/08/29 08:37:18;;;;;;;;;;;23.30;53.90;;;;;;5078794;28;19942;-60
2022/08/29 08:39:44;;;;;;;;;;;23.30;53.80;;;;;;5100343;28;19920;-61
2022/08/29 08:42:13;;;;;;;;;;;23.30;53.80;;;;;;5094839;27;19970;-61
2022/08/29 08:44:48;;;;;;;;;;;23.30;53.90;;;;;;5095010;28;19963;-61
2022/08/29 08:47:15;;;;;;;;;;;23.30;53.80;;;;;;5103560;28;19920;-62
2022/08/29 08:49:44;;;;;;;;;;;23.30;53.70;;;;;;5107112;28;19920;-62
2022/08/29 08:52:12;;;;;;;;;;;23.30;53.70;;;;;;5082228;28;19924;-62
2022/08/29 08:54:41;;;;;;;;;;;23.30;53.70;;;;;;5099208;28;20297;-61
2022/08/29 08:57:08;;;;;;;;;;;23.30;53.60;;;;;;5104351;28;19963;-61
2022/08/29 08:59:38;;;;;;;;;;;23.30;53.60;;;;;;5102150;28;19919;-61
2022/08/29 09:02:08;;;;;;;;;;;23.30;53.60;;;;;;5087833;28;20012;-62
2022/08/29 09:04:42;;;;;;;;;;;23.30;53.50;;;;;;5091706;28;19986;-61
2022/08/29 09:07:20;;;;;;;;;;;23.30;53.60;;;;;;5084836;28;20390;-61
2022/08/29 09:09:52;;;;;;;;;;;23.30;53.50;;;;;;5090208;28;19927;-60
2022/08/29 09:12:22;;;;;;;;;;;23.30;53.50;;;;;;5103994;28;19920;-60
2022/08/29 09:14:52;;;;;;;;;;;23.30;53.50;;;;;;5085660;28;19927;-61
2022/08/29 09:17:20;;;;;;;;;;;23.40;53.60;;;;;;5077477;28;19920;-60
2022/08/29 09:19:47;;;;;;;;;;;23.40;53.60;;;;;;5098725;28;19920;-61
2022/08/29 09:22:15;;;;;;;;;;;23.40;53.50;;;;;;5090737;28;19920;-60
2022/08/29 09:24:47;;;;;;;;;;;23.40;53.50;;;;;;5094534;28;19920;-60
2022/08/29 09:27:18;;;;;;;;;;;23.40;53.50;;;;;;5085728;28;19920;-60
2022/08/29 09:29:45;;;;;;;;;;;23.40;53.50;;;;;;5109784;28;20318;-61
2022/08/29 09:32:12;;;;;;;;;;;23.40;53.50;;;;;;5110482;28;19947;-60
2022/08/29 09:34:40;;;;;;;;;;;23.40;53.50;;;;;;5079458;28;19977;-60
2022/08/29 09:37:15;;;;;;;;;;;23.40;53.50;;;;;;5098328;28;19949;-61
2022/08/29 09:39:42;;;;;;;;;;;23.40;53.50;;;;;;5089456;28;19921;-61
2022/08/29 09:42:18;;;;;;;;;;;23.40;53.40;;;;;;5107441;28;19968;-60
2022/08/29 09:44:51;;;;;;;;;;;23.40;53.40;;;;;;5104173;28;19928;-62
2022/08/29 09:47:19;;;;;;;;;;;23.50;53.50;;;;;;5093110;28;19926;-61
2022/08/29 09:50:00;;;;;;;;;;;23.50;53.60;;;;;;5077752;28;20003;-61
2022/08/29 09:52:26;;;;;;;;;;;23.50;53.60;;;;;;5094365;28;19924;-60
2022/08/29 09:54:53;;;;;;;;;;;23.50;53.60;;;;;;5108161;28;20430;-60
2022/08/29 09:57:22;;;;;;;;;;;23.50;53.50;;;;;;5090701;28;19928;-61
2022/08/29 09:59:49;;;;;;;;;;;23.50;54.10;;;;;;5102285;28;20256;-61
2022/08/29 10:02:20;;;;;;;;;;;23.50;53.50;;;;;;5098705;28;19927;-60
2022/08/29 10:04:48;;;;;;;;;;;23.50;53.40;;;;;;5105737;28;19919;-60
2022/08/29 10:07:16;;;;;;;;;;;23.50;53.40;;;;;;5089750;28;19932;-60
2022/08/29 10:09:53;;;;;;;;;;;23.50;53.40;;;;;;5120795;28;20026;-61
2022/08/29 10:12:20;;;;;;;;;;;23.50;53.30;;;;;;5091804;28;19967;-61
2022/08/29 10:14:49;;;;;;;;;;;23.50;53.30;;;;;;5087201;28;20320;-60
2022/08/29 10:20:08;;;;;;;;;;;23.50;53.30;;;;;;5057204;28;19921;-60
2022/08/29 10:22:36;;;;;;;;;;;23.50;53.30;;;;;;5096845;28;20391;-60
2022/08/29 10:25:03;;;;;;;;;;;23.50;53.30;;;;;;5109334;27;20300;-61
2022/08/29 10:27:31;;;;;;;;;;;23.50;53.20;;;;;;5102436;28;19943;-61
2022/08/29 10:30:16;;;;;;;;;;;23.50;53.20;;;;;;5082063;28;19943;-60
2022/08/29 10:32:57;;;;;;;;;;;23.60;53.30;;;;;;5094925;28;19974;-60
2022/08/29 10:35:28;;;;;;;;;;;23.50;53.20;;;;;;5074211;28;19920;-62
2022/08/29 10:37:55;;;;;;;;;;;23.50;53.20;;;;;;5088685;28;19954;-61
2022/08/29 10:40:25;;;;;;;;;;;23.50;53.10;;;;;;5074688;28;20374;-62
2022/08/29 10:42:53;;;;;;;;;;;23.50;53.10;;;;;;5085269;28;19920;-61
2022/08/29 10:45:23;;;;;;;;;;;23.50;53.10;;;;;;5120773;27;19990;-62
2022/08/29 10:47:51;;;;;;;;;;;23.50;53.00;;;;;;5092911;28;19920;-62
2022/08/29 10:50:20;;;;;;;;;;;23.50;53.00;;;;;;5089640;28;20381;-62
2022/08/29 10:52:51;;;;;;;;;;;23.50;53.00;;;;;;5106936;28;19971;-62
2022/08/29 10:55:19;;;;;;;;;;;23.50;53.00;;;;;;5089893;28;19920;-63
2022/08/29 10:57:47;;;;;;;;;;;23.50;53.00;;;;;;5107857;28;19920;-62
2022/08/29 11:00:15;;;;;;;;;;;23.50;53.00;;;;;;5107648;28;19946;-62
2022/08/29 11:02:44;;;;;;;;;;;23.50;53.10;;;;;;5114276;27;19919;-62
2022/08/29 11:05:11;;;;;;;;;;;23.50;53.00;;;;;;5124627;27;19920;-62
2022/08/29 11:07:40;;;;;;;;;;;23.50;53.00;;;;;;5105032;28;19952;-62
2022/08/29 11:10:08;;;;;;;;;;;23.50;53.00;;;;;;5093624;28;19920;-63
2022/08/29 11:12:39;;;;;;;;;;;23.50;53.00;;;;;;5109096;28;20273;-63
2022/08/29 11:15:07;;;;;;;;;;;23.50;53.00;;;;;;5109906;28;19970;-63
2022/08/29 11:17:34;;;;;;;;;;;23.60;53.10;;;;;;5090614;28;19981;-63
2022/08/29 11:20:03;;;;;;;;;;;23.60;53.10;;;;;;5098212;28;19932;-62
2022/08/29 11:22:31;;;;;;;;;;;23.60;53.10;;;;;;5094783;28;19921;-63
2022/08/29 11:25:00;;;;;;;;;;;23.60;53.10;;;;;;5107075;28;20010;-62
2022/08/29 11:27:30;;;;;;;;;;;23.60;53.10;;;;;;5107638;28;19975;-62
2022/08/29 11:29:57;;;;;;;;;;;23.60;53.10;;;;;;5107063;28;19989;-62
2022/08/29 11:32:26;;;;;;;;;;;23.60;53.10;;;;;;5110266;28;19920;-62
2022/08/29 11:34:57;;;;;;;;;;;23.60;53.10;;;;;;5107914;28;19927;-63
2022/08/29 11:37:45;;;;;;;;;;;23.60;53.10;;;;;;5108979;28;19920;-61
2022/08/29 11:40:14;;;;;;;;;;;23.60;53.10;;;;;;5059325;28;19950;-61
2022/08/29 11:42:42;;;;;;;;;;;23.60;53.10;;;;;;5108934;28;19958;-61
2022/08/29 11:45:10;;;;;;;;;;;23.60;53.20;;;;;;5104285;28;19963;-60
2022/08/29 11:47:38;;;;;;;;;;;23.60;53.10;;;;;;5107422;28;19977;-61
2022/08/29 11:50:18;;;;;;;;;;;23.60;53.10;;;;;;5107879;28;19920;-61
2022/08/29 11:52:48;;;;;;;;;;;23.60;53.10;;;;;;5072980;28;19927;-61
2022/08/29 11:55:37;;;;;;;;;;;23.60;53.10;;;;;;5096102;28;19927;-61
2022/08/29 11:58:38;;;;;;;;;;;23.60;53.20;;;;;;5109245;28;19924;-60
2022/08/29 12:01:05;;;;;;;;;;;23.60;53.20;;;;;;5105533;28;19920;-61
2022/08/29 12:03:56;;;;;;;;;;;23.60;53.20;;;;;;5111229;28;19924;-61
2022/08/29 12:06:23;;;;;;;;;;;23.60;53.20;;;;;;5106483;28;19924;-61
2022/08/29 12:08:52;;;;;;;;;;;23.60;53.20;;;;;;5104521;28;19928;-61
2022/08/29 12:11:19;;;;;;;;;;;23.70;53.20;;;;;;5100153;28;19926;-61
2022/08/29 12:14:10;;;;;;;;;;;23.70;53.20;;;;;;5110627;28;19942;-61
2022/08/29 12:16:48;;;;;;;;;;;23.70;53.20;;;;;;5101403;28;19989;-62
2022/08/29 12:19:39;;;;;;;;;;;23.70;53.20;;;;;;5092585;28;19966;-61
2022/08/29 12:22:06;;;;;;;;;;;23.70;53.30;;;;;;5074620;28;19956;-61
2022/08/29 12:24:38;;;;;;;;;;;23.70;53.20;;;;;;5082347;28;20319;-61
2022/08/29 12:27:05;;;;;;;;;;;23.70;53.20;;;;;;5091062;28;19920;-60
2022/08/29 12:29:33;;;;;;;;;;;23.70;53.20;;;;;;5103593;28;19965;-61
2022/08/29 12:32:23;;;;;;;;;;;23.70;53.10;;;;;;5106812;27;19920;-61
2022/08/29 12:34:53;;;;;;;;;;;23.70;53.10;;;;;;5095597;28;19927;-61
2022/08/29 12:37:24;;;;;;;;;;;23.70;53.10;;;;;;5102123;28;19920;-61
2022/08/29 12:40:01;;;;;;;;;;;23.70;53.10;;;;;;5108383;28;19969;-61
2022/08/29 12:42:31;;;;;;;;;;;23.70;53.10;;;;;;5080608;28;19920;-61
2022/08/29 12:44:58;;;;;;;;;;;23.70;53.10;;;;;;5089760;28;19927;-61
2022/08/29 12:47:27;;;;;;;;;;;23.70;53.00;;;;;;5109605;28;20033;-60
2022/08/29 12:49:54;;;;;;;;;;;23.70;53.00;;;;;;5088711;28;20019;-60
2022/08/29 12:52:22;;;;;;;;;;;23.70;52.90;;;;;;5091161;28;19969;-60
2022/08/29 12:54:51;;;;;;;;;;;23.70;52.90;;;;;;5108886;28;19920;-60
2022/08/29 12:57:19;;;;;;;;;;;23.80;52.90;;;;;;5091740;28;19920;-61
2022/08/29 12:59:48;;;;;;;;;;;23.70;52.90;;;;;;5081561;28;21328;-62
2022/08/29 13:02:30;;;;;;;;;;;23.70;52.80;;;;;;5093232;28;19930;-61
2022/08/29 13:04:57;;;;;;;;;;;23.70;52.80;;;;;;5092951;28;19920;-61
2022/08/29 13:07:23;;;;;;;;;;;23.70;52.70;;;;;;5108266;27;19967;-61
2022/08/29 13:09:51;;;;;;;;;;;23.70;52.70;;;;;;5092008;28;19956;-61
2022/08/29 13:12:20;;;;;;;;;;;23.70;52.70;;;;;;5090485;28;19965;-61
2022/08/29 13:14:47;;;;;;;;;;;23.70;52.70;;;;;;5105971;28;19932;-61
2022/08/29 13:17:14;;;;;;;;;;;23.70;52.70;;;;;;5089959;28;19924;-62
2022/08/29 13:19:43;;;;;;;;;;;23.70;52.60;;;;;;5089058;28;19926;-60
2022/08/29 13:22:11;;;;;;;;;;;23.70;52.60;;;;;;5107211;28;19989;-61
2022/08/29 13:24:38;;;;;;;;;;;23.70;52.60;;;;;;5107948;28;19954;-62
2022/08/29 13:27:08;;;;;;;;;;;23.70;52.60;;;;;;5091848;28;19966;-61
2022/08/29 13:29:35;;;;;;;;;;;23.70;52.50;;;;;;5095110;28;19920;-61
2022/08/29 13:32:09;;;;;;;;;;;23.70;52.50;;;;;;5073366;28;19920;-61
2022/08/29 13:34:36;;;;;;;;;;;23.70;52.60;;;;;;5103239;28;19970;-61
2022/08/29 13:37:06;;;;;;;;;;;23.70;52.50;;;;;;5090641;28;20383;-60
2022/08/29 13:39:34;;;;;;;;;;;23.70;52.50;;;;;;5087443;28;19920;-61
2022/08/29 13:42:07;;;;;;;;;;;23.70;52.50;;;;;;5085382;28;19973;-60
2022/08/29 13:44:35;;;;;;;;;;;23.70;52.50;;;;;;5104706;28;19985;-61
2022/08/29 13:47:03;;;;;;;;;;;23.70;52.50;;;;;;5106564;28;20405;-60
2022/08/29 13:49:30;;;;;;;;;;;23.70;52.50;;;;;;5087052;28;19920;-60
2022/08/29 13:51:57;;;;;;;;;;;23.70;52.40;;;;;;5091113;28;19920;-61
2022/08/29 13:54:25;;;;;;;;;;;23.70;52.40;;;;;;5105184;28;20304;-60
2022/08/29 13:56:53;;;;;;;;;;;23.70;52.30;;;;;;5087866;28;20018;-61
2022/08/29 13:59:20;;;;;;;;;;;23.70;52.40;;;;;;5102632;28;19983;-60
2022/08/29 14:01:47;;;;;;;;;;;23.70;52.40;;;;;;5104149;27;19935;-60
2022/08/29 14:04:14;;;;;;;;;;;23.70;52.30;;;;;;5107594;27;19928;-61
2022/08/29 14:06:41;;;;;;;;;;;23.70;52.30;;;;;;5085693;28;20011;-60
2022/08/29 14:09:07;;;;;;;;;;;23.70;52.30;;;;;;5089552;28;19974;-60
2022/08/29 14:11:35;;;;;;;;;;;23.70;52.90;;;;;;5107091;27;20019;-60
2022/08/29 14:14:02;;;;;;;;;;;23.70;52.30;;;;;;5100001;28;19928;-60
2022/08/29 14:16:28;;;;;;;;;;;23.70;52.30;;;;;;5105876;28;20556;-61
2022/08/29 14:18:55;;;;;;;;;;;23.70;52.30;;;;;;5091600;28;19920;-61
2022/08/29 14:21:23;;;;;;;;;;;23.70;52.30;;;;;;5090042;28;19924;-60
2022/08/29 14:23:50;;;;;;;;;;;23.70;52.20;;;;;;5084582;28;20446;-61
2022/08/29 14:26:16;;;;;;;;;;;23.70;52.20;;;;;;5091132;28;19924;-60
2022/08/29 14:28:45;;;;;;;;;;;23.70;52.20;;;;;;5088033;28;20023;-61